sensor_id;sensor_type;location;lat;lon;timestamp;P1;durP1;ratioP1;P2;durP2;ratioP2
4704;SDS011;2366;51.332;6.610;2023-10-09T00:00:31;50.42;;;27.15;;
4704;SDS011;2366;51.332;6.610;2023-10-09T00:02:59;47.97;;;28.85;;
4704;SDS011;2366;51.332;6.610;2023-10-09T00:05:26;51.03;;;25.77;;
4704;SDS011;2366;51.332;6.610;2023-10-09T00:08:16;71.88;;;30.17;;
4704;SDS011;2366;51.332;6.610;2023-10-09T00:10:44;55.88;;;27.23;;
4704;SDS011;2366;51.332;6.610;2023-10-09T00:13:14;52.50;;;28.42;;
4704;SDS011;2366;51.332;6.610;2023-10-09T00:15:39;62.37;;;30.50;;
4704;SDS011;2366;51.332;6.610;2023-10-09T00:18:07;53.85;;;27.42;;
4704;SDS011;2366;51.332;6.610;2023-10-09T00:20:37;53.22;;;26.55;;
4704;SDS011;2366;51.332;6.610;2023-10-09T00:23:08;46.45;;;25.02;;
4704;SDS011;2366;51.332;6.610;2023-10-09T00:25:39;52.88;;;24.63;;
4704;SDS011;2366;51.332;6.610;2023-10-09T00:28:11;45.85;;;23.65;;
4704;SDS011;2366;51.332;6.610;2023-10-09T00:30:40;47.67;;;26.90;;
4704;SDS011;2366;51.332;6.610;2023-10-09T00:33:06;44.03;;;23.05;;
4704;SDS011;2366;51.332;6.610;2023-10-09T00:35:36;42.90;;;23.65;;
4704;SDS011;2366;51.332;6.610;2023-10-09T00:38:08;41.10;;;24.90;;
4704;SDS011;2366;51.332;6.610;2023-10-09T00:40:49;37.67;;;21.55;;
4704;SDS011;2366;51.332;6.610;2023-10-09T00:43:48;34.47;;;20.85;;
4704;SDS011;2366;51.332;6.610;2023-10-09T00:46:18;38.50;;;21.23;;
4704;SDS011;2366;51.332;6.610;2023-10-09T00:48:48;32.03;;;19.23;;
4704;SDS011;2366;51.332;6.610;2023-10-09T00:51:22;32.50;;;18.55;;
4704;SDS011;2366;51.332;6.610;2023-10-09T00:53:49;29.05;;;17.65;;
4704;SDS011;2366;51.332;6.610;2023-10-09T00:56:17;33.08;;;19.40;;
4704;SDS011;2366;51.332;6.610;2023-10-09T00:58:58;31.45;;;19.58;;
4704;SDS011;2366;51.332;6.610;2023-10-09T01:01:31;38.15;;;19.70;;
4704;SDS011;2366;51.332;6.610;2023-10-09T01:04:02;31.73;;;17.52;;
4704;SDS011;2366;51.332;6.610;2023-10-09T01:06:42;33.53;;;19.52;;
4704;SDS011;2366;51.332;6.610;2023-10-09T01:09:13;29.23;;;18.10;;
4704;SDS011;2366;51.332;6.610;2023-10-09T01:11:42;27.02;;;17.42;;
4704;SDS011;2366;51.332;6.610;2023-10-09T01:14:28;26.00;;;15.88;;
4704;SDS011;2366;51.332;6.610;2023-10-09T01:16:55;31.85;;;17.13;;
4704;SDS011;2366;51.332;6.610;2023-10-09T01:19:22;25.85;;;16.30;;
4704;SDS011;2366;51.332;6.610;2023-10-09T01:21:52;23.02;;;14.32;;
4704;SDS011;2366;51.332;6.610;2023-10-09T01:24:19;22.83;;;14.23;;
4704;SDS011;2366;51.332;6.610;2023-10-09T01:26:45;24.92;;;15.48;;
4704;SDS011;2366;51.332;6.610;2023-10-09T01:29:13;24.55;;;14.45;;
4704;SDS011;2366;51.332;6.610;2023-10-09T01:31:43;24.27;;;15.43;;
4704;SDS011;2366;51.332;6.610;2023-10-09T01:34:26;23.95;;;14.38;;
4704;SDS011;2366;51.332;6.610;2023-10-09T01:37:10;19.55;;;13.57;;
4704;SDS011;2366;51.332;6.610;2023-10-09T01:39:42;24.33;;;13.40;;
4704;SDS011;2366;51.332;6.610;2023-10-09T01:42:08;30.63;;;14.63;;
4704;SDS011;2366;51.332;6.610;2023-10-09T01:44:35;18.45;;;12.35;;
4704;SDS011;2366;51.332;6.610;2023-10-09T01:47:03;20.67;;;13.67;;
4704;SDS011;2366;51.332;6.610;2023-10-09T01:49:35;22.10;;;14.38;;
4704;SDS011;2366;51.332;6.610;2023-10-09T01:52:06;20.40;;;14.52;;
4704;SDS011;2366;51.332;6.610;2023-10-09T01:54:37;17.63;;;13.88;;
4704;SDS011;2366;51.332;6.610;2023-10-09T01:57:05;24.15;;;14.07;;
4704;SDS011;2366;51.332;6.610;2023-10-09T01:59:42;19.70;;;12.85;;
4704;SDS011;2366;51.332;6.610;2023-10-09T02:02:14;22.65;;;14.27;;
4704;SDS011;2366;51.332;6.610;2023-10-09T02:04:53;20.52;;;13.23;;
4704;SDS011;2366;51.332;6.610;2023-10-09T02:07:30;26.00;;;15.65;;
4704;SDS011;2366;51.332;6.610;2023-10-09T02:10:05;20.38;;;13.15;;
4704;SDS011;2366;51.332;6.610;2023-10-09T02:12:36;23.10;;;14.77;;
4704;SDS011;2366;51.332;6.610;2023-10-09T02:15:02;29.63;;;15.10;;
4704;SDS011;2366;51.332;6.610;2023-10-09T02:17:40;24.65;;;14.65;;
4704;SDS011;2366;51.332;6.610;2023-10-09T02:20:17;23.15;;;14.80;;
4704;SDS011;2366;51.332;6.610;2023-10-09T02:22:53;18.33;;;12.88;;
4704;SDS011;2366;51.332;6.610;2023-10-09T02:25:19;18.30;;;12.43;;
4704;SDS011;2366;51.332;6.610;2023-10-09T02:27:46;19.55;;;11.50;;
4704;SDS011;2366;51.332;6.610;2023-10-09T02:30:18;17.45;;;11.95;;
4704;SDS011;2366;51.332;6.610;2023-10-09T02:32:52;19.88;;;14.02;;
4704;SDS011;2366;51.332;6.610;2023-10-09T02:35:24;17.80;;;12.95;;
4704;SDS011;2366;51.332;6.610;2023-10-09T02:38:01;19.00;;;13.40;;
4704;SDS011;2366;51.332;6.610;2023-10-09T02:40:29;25.02;;;13.55;;
4704;SDS011;2366;51.332;6.610;2023-10-09T02:42:58;18.10;;;12.88;;
4704;SDS011;2366;51.332;6.610;2023-10-09T02:45:24;26.27;;;13.50;;
4704;SDS011;2366;51.332;6.610;2023-10-09T02:47:49;19.47;;;13.00;;
4704;SDS011;2366;51.332;6.610;2023-10-09T02:50:16;14.13;;;9.95;;
4704;SDS011;2366;51.332;6.610;2023-10-09T02:52:48;16.65;;;11.82;;
4704;SDS011;2366;51.332;6.610;2023-10-09T02:55:24;11.73;;;10.18;;
4704;SDS011;2366;51.332;6.610;2023-10-09T02:57:51;15.63;;;10.73;;
4704;SDS011;2366;51.332;6.610;2023-10-09T03:00:21;19.40;;;11.75;;
4704;SDS011;2366;51.332;6.610;2023-10-09T03:02:54;17.80;;;11.85;;
4704;SDS011;2366;51.332;6.610;2023-10-09T03:05:23;24.23;;;14.50;;
4704;SDS011;2366;51.332;6.610;2023-10-09T03:07:54;20.50;;;10.90;;
4704;SDS011;2366;51.332;6.610;2023-10-09T03:10:23;15.87;;;10.80;;
4704;SDS011;2366;51.332;6.610;2023-10-09T03:12:50;15.90;;;11.95;;
4704;SDS011;2366;51.332;6.610;2023-10-09T03:15:16;16.23;;;11.00;;
4704;SDS011;2366;51.332;6.610;2023-10-09T03:17:44;19.40;;;10.82;;
4704;SDS011;2366;51.332;6.610;2023-10-09T03:20:10;15.70;;;10.87;;
4704;SDS011;2366;51.332;6.610;2023-10-09T03:22:39;17.25;;;11.48;;
4704;SDS011;2366;51.332;6.610;2023-10-09T03:25:05;12.13;;;9.95;;
4704;SDS011;2366;51.332;6.610;2023-10-09T03:27:40;14.38;;;9.38;;
4704;SDS011;2366;51.332;6.610;2023-10-09T03:30:13;20.67;;;11.18;;
4704;SDS011;2366;51.332;6.610;2023-10-09T03:32:49;15.43;;;11.98;;
4704;SDS011;2366;51.332;6.610;2023-10-09T03:35:19;23.90;;;13.25;;
4704;SDS011;2366;51.332;6.610;2023-10-09T03:37:49;12.88;;;9.63;;
4704;SDS011;2366;51.332;6.610;2023-10-09T03:40:16;19.40;;;10.90;;
4704;SDS011;2366;51.332;6.610;2023-10-09T03:42:43;13.25;;;10.55;;
4704;SDS011;2366;51.332;6.610;2023-10-09T03:45:09;13.07;;;9.63;;
4704;SDS011;2366;51.332;6.610;2023-10-09T03:47:43;16.27;;;11.50;;
4704;SDS011;2366;51.332;6.610;2023-10-09T03:50:09;14.73;;;9.10;;
4704;SDS011;2366;51.332;6.610;2023-10-09T03:52:49;15.20;;;10.27;;
4704;SDS011;2366;51.332;6.610;2023-10-09T03:55:15;14.82;;;10.48;;
4704;SDS011;2366;51.332;6.610;2023-10-09T03:57:40;21.10;;;10.40;;
4704;SDS011;2366;51.332;6.610;2023-10-09T04:00:06;14.90;;;11.13;;
4704;SDS011;2366;51.332;6.610;2023-10-09T04:02:38;18.58;;;11.75;;
4704;SDS011;2366;51.332;6.610;2023-10-09T04:05:04;13.90;;;9.70;;
4704;SDS011;2366;51.332;6.610;2023-10-09T04:07:32;15.60;;;9.95;;
4704;SDS011;2366;51.332;6.610;2023-10-09T04:09:58;14.38;;;9.45;;
4704;SDS011;2366;51.332;6.610;2023-10-09T04:12:44;10.30;;;8.35;;
4704;SDS011;2366;51.332;6.610;2023-10-09T04:15:09;17.47;;;8.90;;
4704;SDS011;2366;51.332;6.610;2023-10-09T04:17:40;15.07;;;9.02;;
4704;SDS011;2366;51.332;6.610;2023-10-09T04:20:08;12.80;;;9.25;;
4704;SDS011;2366;51.332;6.610;2023-10-09T04:22:59;13.95;;;10.25;;
4704;SDS011;2366;51.332;6.610;2023-10-09T04:25:29;11.80;;;9.35;;
4704;SDS011;2366;51.332;6.610;2023-10-09T04:28:05;18.55;;;11.40;;
4704;SDS011;2366;51.332;6.610;2023-10-09T04:30:44;17.85;;;10.23;;
4704;SDS011;2366;51.332;6.610;2023-10-09T04:33:18;14.02;;;9.95;;
4704;SDS011;2366;51.332;6.610;2023-10-09T04:36:07;21.30;;;11.60;;
4704;SDS011;2366;51.332;6.610;2023-10-09T04:38:48;21.17;;;12.73;;
4704;SDS011;2366;51.332;6.610;2023-10-09T04:41:40;14.98;;;11.05;;
4704;SDS011;2366;51.332;6.610;2023-10-09T04:44:06;14.87;;;10.53;;
4704;SDS011;2366;51.332;6.610;2023-10-09T04:46:44;14.07;;;10.40;;
4704;SDS011;2366;51.332;6.610;2023-10-09T04:49:30;15.68;;;11.85;;
4704;SDS011;2366;51.332;6.610;2023-10-09T04:51:59;17.38;;;11.48;;
4704;SDS011;2366;51.332;6.610;2023-10-09T04:54:34;14.63;;;11.73;;
4704;SDS011;2366;51.332;6.610;2023-10-09T04:57:25;16.60;;;11.27;;
4704;SDS011;2366;51.332;6.610;2023-10-09T04:59:50;17.20;;;10.97;;
4704;SDS011;2366;51.332;6.610;2023-10-09T05:02:16;18.50;;;13.97;;
4704;SDS011;2366;51.332;6.610;2023-10-09T05:04:47;16.08;;;11.60;;
4704;SDS011;2366;51.332;6.610;2023-10-09T05:07:16;15.52;;;10.50;;
4704;SDS011;2366;51.332;6.610;2023-10-09T05:09:48;15.50;;;10.57;;
4704;SDS011;2366;51.332;6.610;2023-10-09T05:12:21;18.00;;;12.15;;
4704;SDS011;2366;51.332;6.610;2023-10-09T05:14:51;21.42;;;10.50;;
4704;SDS011;2366;51.332;6.610;2023-10-09T05:17:33;13.95;;;9.77;;
4704;SDS011;2366;51.332;6.610;2023-10-09T05:20:01;18.05;;;12.20;;
4704;SDS011;2366;51.332;6.610;2023-10-09T05:22:46;15.18;;;11.43;;
4704;SDS011;2366;51.332;6.610;2023-10-09T05:25:22;15.40;;;11.00;;
4704;SDS011;2366;51.332;6.610;2023-10-09T05:28:08;16.42;;;9.88;;
4704;SDS011;2366;51.332;6.610;2023-10-09T05:30:52;14.75;;;8.75;;
4704;SDS011;2366;51.332;6.610;2023-10-09T05:33:36;10.77;;;8.52;;
4704;SDS011;2366;51.332;6.610;2023-10-09T05:36:03;17.02;;;10.68;;
4704;SDS011;2366;51.332;6.610;2023-10-09T05:38:41;12.50;;;9.18;;
4704;SDS011;2366;51.332;6.610;2023-10-09T05:41:12;14.27;;;10.30;;
4704;SDS011;2366;51.332;6.610;2023-10-09T05:44:10;14.95;;;10.38;;
4704;SDS011;2366;51.332;6.610;2023-10-09T05:46:54;16.88;;;10.80;;
4704;SDS011;2366;51.332;6.610;2023-10-09T05:49:38;13.65;;;9.98;;
4704;SDS011;2366;51.332;6.610;2023-10-09T05:52:33;16.70;;;10.85;;
4704;SDS011;2366;51.332;6.610;2023-10-09T05:55:07;12.93;;;8.75;;
4704;SDS011;2366;51.332;6.610;2023-10-09T05:57:45;18.13;;;10.82;;
4704;SDS011;2366;51.332;6.610;2023-10-09T06:00:29;14.18;;;8.80;;
4704;SDS011;2366;51.332;6.610;2023-10-09T06:03:13;14.52;;;10.95;;
4704;SDS011;2366;51.332;6.610;2023-10-09T06:05:48;17.20;;;10.68;;
4704;SDS011;2366;51.332;6.610;2023-10-09T06:08:24;14.63;;;10.73;;
4704;SDS011;2366;51.332;6.610;2023-10-09T06:11:06;20.83;;;11.25;;
4704;SDS011;2366;51.332;6.610;2023-10-09T06:13:51;22.27;;;12.27;;
4704;SDS011;2366;51.332;6.610;2023-10-09T06:16:28;18.98;;;11.70;;
4704;SDS011;2366;51.332;6.610;2023-10-09T06:19:13;19.25;;;12.82;;
4704;SDS011;2366;51.332;6.610;2023-10-09T06:21:45;20.17;;;12.20;;
4704;SDS011;2366;51.332;6.610;2023-10-09T06:24:20;14.68;;;10.27;;
4704;SDS011;2366;51.332;6.610;2023-10-09T06:26:58;15.45;;;11.65;;
4704;SDS011;2366;51.332;6.610;2023-10-09T06:29:32;14.85;;;10.48;;
4704;SDS011;2366;51.332;6.610;2023-10-09T06:32:04;17.50;;;12.77;;
4704;SDS011;2366;51.332;6.610;2023-10-09T06:34:58;14.25;;;10.57;;
4704;SDS011;2366;51.332;6.610;2023-10-09T06:37:47;22.52;;;12.40;;
4704;SDS011;2366;51.332;6.610;2023-10-09T06:43:17;17.02;;;10.60;;
4704;SDS011;2366;51.332;6.610;2023-10-09T06:45:52;20.10;;;11.75;;
4704;SDS011;2366;51.332;6.610;2023-10-09T06:48:41;14.65;;;9.88;;
4704;SDS011;2366;51.332;6.610;2023-10-09T06:51:12;17.33;;;10.30;;
4704;SDS011;2366;51.332;6.610;2023-10-09T06:53:54;18.35;;;10.57;;
4704;SDS011;2366;51.332;6.610;2023-10-09T06:59:02;18.17;;;10.38;;
4704;SDS011;2366;51.332;6.610;2023-10-09T07:01:48;19.77;;;12.65;;
4704;SDS011;2366;51.332;6.610;2023-10-09T07:04:33;16.30;;;11.07;;
4704;SDS011;2366;51.332;6.610;2023-10-09T07:06:59;17.65;;;10.95;;
4704;SDS011;2366;51.332;6.610;2023-10-09T07:09:27;17.42;;;11.57;;
4704;SDS011;2366;51.332;6.610;2023-10-09T07:12:07;20.08;;;10.77;;
4704;SDS011;2366;51.332;6.610;2023-10-09T07:14:51;14.27;;;10.68;;
4704;SDS011;2366;51.332;6.610;2023-10-09T07:17:16;19.30;;;11.37;;
4704;SDS011;2366;51.332;6.610;2023-10-09T07:19:51;20.00;;;11.25;;
4704;SDS011;2366;51.332;6.610;2023-10-09T07:22:21;15.27;;;10.38;;
4704;SDS011;2366;51.332;6.610;2023-10-09T07:24:53;18.92;;;10.48;;
4704;SDS011;2366;51.332;6.610;2023-10-09T07:27:25;17.00;;;11.13;;
4704;SDS011;2366;51.332;6.610;2023-10-09T07:30:19;21.33;;;10.30;;
4704;SDS011;2366;51.332;6.610;2023-10-09T07:33:01;14.07;;;10.13;;
4704;SDS011;2366;51.332;6.610;2023-10-09T07:35:36;15.15;;;11.07;;
4704;SDS011;2366;51.332;6.610;2023-10-09T07:38:09;14.85;;;11.82;;
4704;SDS011;2366;51.332;6.610;2023-10-09T07:40:36;16.02;;;10.95;;
4704;SDS011;2366;51.332;6.610;2023-10-09T07:43:20;17.92;;;11.32;;
4704;SDS011;2366;51.332;6.610;2023-10-09T07:45:51;23.33;;;11.43;;
4704;SDS011;2366;51.332;6.610;2023-10-09T07:48:24;19.35;;;13.10;;
4704;SDS011;2366;51.332;6.610;2023-10-09T07:51:03;18.60;;;11.55;;
4704;SDS011;2366;51.332;6.610;2023-10-09T07:53:37;18.23;;;12.30;;
4704;SDS011;2366;51.332;6.610;2023-10-09T07:56:09;22.02;;;11.93;;
4704;SDS011;2366;51.332;6.610;2023-10-09T07:58:35;12.70;;;10.90;;
4704;SDS011;2366;51.332;6.610;2023-10-09T08:01:20;21.42;;;12.57;;
4704;SDS011;2366;51.332;6.610;2023-10-09T08:03:59;13.05;;;10.70;;
4704;SDS011;2366;51.332;6.610;2023-10-09T08:06:45;16.50;;;12.40;;
4704;SDS011;2366;51.332;6.610;2023-10-09T08:09:12;21.92;;;12.15;;
4704;SDS011;2366;51.332;6.610;2023-10-09T08:11:38;18.53;;;12.10;;
4704;SDS011;2366;51.332;6.610;2023-10-09T08:14:39;18.75;;;11.75;;
4704;SDS011;2366;51.332;6.610;2023-10-09T08:17:13;21.05;;;11.45;;
4704;SDS011;2366;51.332;6.610;2023-10-09T08:19:49;20.60;;;11.35;;
4704;SDS011;2366;51.332;6.610;2023-10-09T08:22:36;27.65;;;13.88;;
4704;SDS011;2366;51.332;6.610;2023-10-09T08:25:09;20.27;;;11.23;;
4704;SDS011;2366;51.332;6.610;2023-10-09T08:27:51;14.97;;;10.03;;
4704;SDS011;2366;51.332;6.610;2023-10-09T08:30:53;14.53;;;9.77;;
4704;SDS011;2366;51.332;6.610;2023-10-09T08:33:18;16.63;;;9.57;;
4704;SDS011;2366;51.332;6.610;2023-10-09T08:35:53;17.35;;;11.38;;
4704;SDS011;2366;51.332;6.610;2023-10-09T08:38:32;16.50;;;11.00;;
4704;SDS011;2366;51.332;6.610;2023-10-09T08:41:11;16.30;;;11.70;;
4704;SDS011;2366;51.332;6.610;2023-10-09T08:43:48;21.30;;;10.13;;
4704;SDS011;2366;51.332;6.610;2023-10-09T08:46:18;18.85;;;12.43;;
4704;SDS011;2366;51.332;6.610;2023-10-09T08:48:45;17.70;;;11.32;;
4704;SDS011;2366;51.332;6.610;2023-10-09T08:51:12;17.23;;;12.77;;
4704;SDS011;2366;51.332;6.610;2023-10-09T08:53:39;17.83;;;10.95;;
4704;SDS011;2366;51.332;6.610;2023-10-09T08:56:09;17.83;;;11.25;;
4704;SDS011;2366;51.332;6.610;2023-10-09T08:58:35;16.88;;;11.75;;
4704;SDS011;2366;51.332;6.610;2023-10-09T09:01:05;18.38;;;10.88;;
4704;SDS011;2366;51.332;6.610;2023-10-09T09:03:37;16.50;;;12.20;;
4704;SDS011;2366;51.332;6.610;2023-10-09T09:06:04;13.50;;;9.97;;
4704;SDS011;2366;51.332;6.610;2023-10-09T09:08:30;16.30;;;11.60;;
4704;SDS011;2366;51.332;6.610;2023-10-09T09:11:01;21.23;;;10.47;;
4704;SDS011;2366;51.332;6.610;2023-10-09T09:13:46;15.97;;;11.40;;
4704;SDS011;2366;51.332;6.610;2023-10-09T09:16:22;15.97;;;12.33;;
4704;SDS011;2366;51.332;6.610;2023-10-09T09:19:12;17.77;;;10.17;;
4704;SDS011;2366;51.332;6.610;2023-10-09T09:21:48;14.87;;;10.90;;
4704;SDS011;2366;51.332;6.610;2023-10-09T09:24:19;21.30;;;11.20;;
4704;SDS011;2366;51.332;6.610;2023-10-09T09:26:48;17.30;;;10.50;;
4704;SDS011;2366;51.332;6.610;2023-10-09T09:29:24;19.43;;;8.97;;
4704;SDS011;2366;51.332;6.610;2023-10-09T09:32:04;27.07;;;10.33;;
4704;SDS011;2366;51.332;6.610;2023-10-09T09:34:53;13.83;;;9.07;;
4704;SDS011;2366;51.332;6.610;2023-10-09T09:37:32;11.93;;;10.13;;
4704;SDS011;2366;51.332;6.610;2023-10-09T09:40:15;14.13;;;10.40;;
4704;SDS011;2366;51.332;6.610;2023-10-09T09:42:53;17.30;;;10.53;;
4704;SDS011;2366;51.332;6.610;2023-10-09T09:45:34;26.20;;;11.47;;
4704;SDS011;2366;51.332;6.610;2023-10-09T09:48:06;18.60;;;12.97;;
4704;SDS011;2366;51.332;6.610;2023-10-09T09:50:40;23.83;;;10.83;;
4704;SDS011;2366;51.332;6.610;2023-10-09T09:53:10;20.10;;;9.67;;
4704;SDS011;2366;51.332;6.610;2023-10-09T09:55:42;20.33;;;10.90;;
4704;SDS011;2366;51.332;6.610;2023-10-09T09:58:17;17.00;;;11.30;;
4704;SDS011;2366;51.332;6.610;2023-10-09T10:00:48;14.20;;;9.30;;
4704;SDS011;2366;51.332;6.610;2023-10-09T10:03:27;18.93;;;11.40;;
4704;SDS011;2366;51.332;6.610;2023-10-09T10:05:58;18.67;;;10.50;;
4704;SDS011;2366;51.332;6.610;2023-10-09T10:08:29;13.33;;;8.07;;
4704;SDS011;2366;51.332;6.610;2023-10-09T10:10:58;17.03;;;9.83;;
4704;SDS011;2366;51.332;6.610;2023-10-09T10:16:10;17.03;;;9.30;;
4704;SDS011;2366;51.332;6.610;2023-10-09T10:21:40;17.57;;;10.70;;
4704;SDS011;2366;51.332;6.610;2023-10-09T10:29:43;13.50;;;10.27;;
4704;SDS011;2366;51.332;6.610;2023-10-09T10:32:11;17.77;;;9.50;;
4704;SDS011;2366;51.332;6.610;2023-10-09T10:37:11;13.60;;;10.60;;
4704;SDS011;2366;51.332;6.610;2023-10-09T10:39:49;13.20;;;9.63;;
4704;SDS011;2366;51.332;6.610;2023-10-09T10:42:15;15.93;;;10.30;;
4704;SDS011;2366;51.332;6.610;2023-10-09T10:44:58;15.20;;;10.13;;
4704;SDS011;2366;51.332;6.610;2023-10-09T10:47:27;14.57;;;9.90;;
4704;SDS011;2366;51.332;6.610;2023-10-09T10:49:59;14.97;;;7.70;;
4704;SDS011;2366;51.332;6.610;2023-10-09T10:52:45;16.63;;;9.13;;
4704;SDS011;2366;51.332;6.610;2023-10-09T10:55:10;13.03;;;9.40;;
4704;SDS011;2366;51.332;6.610;2023-10-09T10:58:02;14.80;;;10.53;;
4704;SDS011;2366;51.332;6.610;2023-10-09T11:00:38;17.37;;;11.53;;
4704;SDS011;2366;51.332;6.610;2023-10-09T11:03:22;19.37;;;11.17;;
4704;SDS011;2366;51.332;6.610;2023-10-09T11:06:00;14.73;;;10.17;;
4704;SDS011;2366;51.332;6.610;2023-10-09T11:08:43;13.77;;;10.60;;
4704;SDS011;2366;51.332;6.610;2023-10-09T11:11:19;14.30;;;12.10;;
4704;SDS011;2366;51.332;6.610;2023-10-09T11:13:45;18.40;;;11.47;;
4704;SDS011;2366;51.332;6.610;2023-10-09T11:16:25;13.73;;;11.00;;
4704;SDS011;2366;51.332;6.610;2023-10-09T11:19:06;15.10;;;10.77;;
4704;SDS011;2366;51.332;6.610;2023-10-09T11:22:00;16.77;;;10.73;;
4704;SDS011;2366;51.332;6.610;2023-10-09T11:24:32;16.40;;;11.23;;
4704;SDS011;2366;51.332;6.610;2023-10-09T11:26:59;18.70;;;12.20;;
4704;SDS011;2366;51.332;6.610;2023-10-09T11:29:31;17.43;;;11.50;;
4704;SDS011;2366;51.332;6.610;2023-10-09T11:32:14;23.43;;;12.00;;
4704;SDS011;2366;51.332;6.610;2023-10-09T11:34:48;17.00;;;11.20;;
4704;SDS011;2366;51.332;6.610;2023-10-09T11:37:19;18.47;;;10.27;;
4704;SDS011;2366;51.332;6.610;2023-10-09T11:40:03;18.40;;;10.67;;
4704;SDS011;2366;51.332;6.610;2023-10-09T11:42:48;17.10;;;10.40;;
4704;SDS011;2366;51.332;6.610;2023-10-09T11:45:24;25.27;;;13.70;;
4704;SDS011;2366;51.332;6.610;2023-10-09T11:47:54;18.00;;;12.30;;
4704;SDS011;2366;51.332;6.610;2023-10-09T11:50:43;13.13;;;10.13;;
4704;SDS011;2366;51.332;6.610;2023-10-09T11:53:21;13.90;;;11.33;;
4704;SDS011;2366;51.332;6.610;2023-10-09T11:55:46;20.90;;;12.00;;
4704;SDS011;2366;51.332;6.610;2023-10-09T11:58:15;18.90;;;11.70;;
4704;SDS011;2366;51.332;6.610;2023-10-09T12:00:53;20.80;;;12.00;;
4704;SDS011;2366;51.332;6.610;2023-10-09T12:03:24;17.17;;;11.27;;
4704;SDS011;2366;51.332;6.610;2023-10-09T12:05:54;18.70;;;12.43;;
4704;SDS011;2366;51.332;6.610;2023-10-09T12:08:21;17.80;;;10.27;;
4704;SDS011;2366;51.332;6.610;2023-10-09T12:10:49;21.17;;;13.17;;
4704;SDS011;2366;51.332;6.610;2023-10-09T12:13:14;18.63;;;11.70;;
4704;SDS011;2366;51.332;6.610;2023-10-09T12:15:40;15.50;;;9.60;;
4704;SDS011;2366;51.332;6.610;2023-10-09T12:18:09;18.13;;;13.10;;
4704;SDS011;2366;51.332;6.610;2023-10-09T12:20:39;24.63;;;12.17;;
4704;SDS011;2366;51.332;6.610;2023-10-09T12:23:12;17.70;;;10.90;;
4704;SDS011;2366;51.332;6.610;2023-10-09T12:25:39;18.60;;;11.70;;
4704;SDS011;2366;51.332;6.610;2023-10-09T12:28:05;25.40;;;11.70;;
4704;SDS011;2366;51.332;6.610;2023-10-09T12:30:40;16.20;;;10.60;;
4704;SDS011;2366;51.332;6.610;2023-10-09T12:33:06;17.73;;;12.27;;
4704;SDS011;2366;51.332;6.610;2023-10-09T12:35:39;21.20;;;12.27;;
4704;SDS011;2366;51.332;6.610;2023-10-09T12:38:05;15.30;;;12.20;;
4704;SDS011;2366;51.332;6.610;2023-10-09T12:40:35;17.17;;;12.23;;
4704;SDS011;2366;51.332;6.610;2023-10-09T12:43:01;33.83;;;14.10;;
4704;SDS011;2366;51.332;6.610;2023-10-09T12:45:27;22.53;;;12.20;;
4704;SDS011;2366;51.332;6.610;2023-10-09T12:59:04;21.20;;;14.00;;
4704;SDS011;2366;51.332;6.610;2023-10-09T13:01:32;18.00;;;12.10;;
4704;SDS011;2366;51.332;6.610;2023-10-09T13:04:00;17.50;;;11.93;;
4704;SDS011;2366;51.332;6.610;2023-10-09T13:06:26;17.80;;;12.30;;
4704;SDS011;2366;51.332;6.610;2023-10-09T13:08:52;15.77;;;11.97;;
4704;SDS011;2366;51.332;6.610;2023-10-09T13:11:19;15.50;;;11.40;;
4704;SDS011;2366;51.332;6.610;2023-10-09T13:13:45;20.33;;;13.60;;
4704;SDS011;2366;51.332;6.610;2023-10-09T13:16:17;16.80;;;12.73;;
4704;SDS011;2366;51.332;6.610;2023-10-09T13:18:56;23.10;;;13.87;;
4704;SDS011;2366;51.332;6.610;2023-10-09T13:21:27;16.03;;;12.80;;
4704;SDS011;2366;51.332;6.610;2023-10-09T13:23:59;22.07;;;13.43;;
4704;SDS011;2366;51.332;6.610;2023-10-09T13:26:26;23.37;;;14.20;;
4704;SDS011;2366;51.332;6.610;2023-10-09T13:28:57;16.77;;;13.47;;
4704;SDS011;2366;51.332;6.610;2023-10-09T13:31:24;21.70;;;13.30;;
4704;SDS011;2366;51.332;6.610;2023-10-09T13:33:51;19.00;;;15.10;;
4704;SDS011;2366;51.332;6.610;2023-10-09T13:36:24;19.40;;;13.27;;
4704;SDS011;2366;51.332;6.610;2023-10-09T13:41:47;24.40;;;15.50;;
4704;SDS011;2366;51.332;6.610;2023-10-09T13:44:14;26.60;;;16.70;;
4704;SDS011;2366;51.332;6.610;2023-10-09T13:46:40;27.23;;;16.90;;
4704;SDS011;2366;51.332;6.610;2023-10-09T13:49:09;22.97;;;16.83;;
4704;SDS011;2366;51.332;6.610;2023-10-09T13:51:38;25.93;;;15.13;;
4704;SDS011;2366;51.332;6.610;2023-10-09T13:54:11;21.87;;;15.20;;
4704;SDS011;2366;51.332;6.610;2023-10-09T13:56:45;20.80;;;14.17;;
4704;SDS011;2366;51.332;6.610;2023-10-09T13:59:10;25.50;;;16.23;;
4704;SDS011;2366;51.332;6.610;2023-10-09T14:01:38;21.77;;;15.50;;
4704;SDS011;2366;51.332;6.610;2023-10-09T14:04:05;21.93;;;15.70;;
4704;SDS011;2366;51.332;6.610;2023-10-09T14:06:33;22.03;;;13.87;;
4704;SDS011;2366;51.332;6.610;2023-10-09T14:09:00;24.83;;;14.60;;
4704;SDS011;2366;51.332;6.610;2023-10-09T14:11:33;24.13;;;15.47;;
4704;SDS011;2366;51.332;6.610;2023-10-09T14:14:05;27.23;;;15.83;;
4704;SDS011;2366;51.332;6.610;2023-10-09T14:16:41;23.40;;;16.60;;
4704;SDS011;2366;51.332;6.610;2023-10-09T14:19:08;25.13;;;17.43;;
4704;SDS011;2366;51.332;6.610;2023-10-09T14:21:38;22.03;;;15.70;;
4704;SDS011;2366;51.332;6.610;2023-10-09T14:24:05;22.03;;;13.20;;
4704;SDS011;2366;51.332;6.610;2023-10-09T14:26:40;21.97;;;13.70;;
4704;SDS011;2366;51.332;6.610;2023-10-09T14:29:06;24.77;;;15.20;;
4704;SDS011;2366;51.332;6.610;2023-10-09T14:31:32;20.53;;;14.10;;
4704;SDS011;2366;51.332;6.610;2023-10-09T14:34:03;22.47;;;15.27;;
4704;SDS011;2366;51.332;6.610;2023-10-09T14:36:30;18.53;;;14.43;;
4704;SDS011;2366;51.332;6.610;2023-10-09T14:38:58;22.33;;;12.00;;
4704;SDS011;2366;51.332;6.610;2023-10-09T14:41:29;21.77;;;14.50;;
4704;SDS011;2366;51.332;6.610;2023-10-09T14:43:58;19.73;;;13.23;;
4704;SDS011;2366;51.332;6.610;2023-10-09T14:46:24;23.27;;;16.77;;
4704;SDS011;2366;51.332;6.610;2023-10-09T14:48:53;24.73;;;16.33;;
4704;SDS011;2366;51.332;6.610;2023-10-09T14:51:22;29.77;;;16.50;;
4704;SDS011;2366;51.332;6.610;2023-10-09T14:53:58;23.13;;;17.43;;
4704;SDS011;2366;51.332;6.610;2023-10-09T14:56:30;24.47;;;16.70;;
4704;SDS011;2366;51.332;6.610;2023-10-09T14:58:58;24.93;;;16.50;;
4704;SDS011;2366;51.332;6.610;2023-10-09T15:01:28;27.73;;;15.30;;
4704;SDS011;2366;51.332;6.610;2023-10-09T15:03:56;26.50;;;16.47;;
4704;SDS011;2366;51.332;6.610;2023-10-09T15:06:23;23.10;;;15.60;;
4704;SDS011;2366;51.332;6.610;2023-10-09T15:08:49;20.00;;;14.30;;
4704;SDS011;2366;51.332;6.610;2023-10-09T15:11:15;23.70;;;14.93;;
4704;SDS011;2366;51.332;6.610;2023-10-09T15:13:41;18.07;;;14.03;;
4704;SDS011;2366;51.332;6.610;2023-10-09T15:16:07;19.73;;;14.30;;
4704;SDS011;2366;51.332;6.610;2023-10-09T15:18:32;20.50;;;14.60;;
4704;SDS011;2366;51.332;6.610;2023-10-09T15:20:59;33.23;;;17.30;;
4704;SDS011;2366;51.332;6.610;2023-10-09T15:23:25;29.93;;;16.50;;
4704;SDS011;2366;51.332;6.610;2023-10-09T15:25:51;20.90;;;14.17;;
4704;SDS011;2366;51.332;6.610;2023-10-09T15:28:23;31.07;;;15.90;;
4704;SDS011;2366;51.332;6.610;2023-10-09T15:30:49;32.20;;;14.70;;
4704;SDS011;2366;51.332;6.610;2023-10-09T15:33:15;21.30;;;14.40;;
4704;SDS011;2366;51.332;6.610;2023-10-09T15:35:45;25.07;;;14.83;;
4704;SDS011;2366;51.332;6.610;2023-10-09T15:38:12;23.47;;;15.77;;
4704;SDS011;2366;51.332;6.610;2023-10-09T15:40:38;19.10;;;14.10;;
4704;SDS011;2366;51.332;6.610;2023-10-09T15:43:06;24.10;;;14.70;;
4704;SDS011;2366;51.332;6.610;2023-10-09T15:45:32;22.47;;;16.27;;
4704;SDS011;2366;51.332;6.610;2023-10-09T15:48:10;22.97;;;14.70;;
4704;SDS011;2366;51.332;6.610;2023-10-09T15:50:37;19.00;;;12.17;;
4704;SDS011;2366;51.332;6.610;2023-10-09T15:53:04;23.40;;;13.53;;
4704;SDS011;2366;51.332;6.610;2023-10-09T15:55:31;20.80;;;15.37;;
4704;SDS011;2366;51.332;6.610;2023-10-09T15:57:59;26.83;;;17.20;;